Time;durP1;ratioP1;P1;durP2;ratioP2;P2;SDS_P1;SDS_P2;PMS_P1;PMS_P2;Temp;Humidity;BMP_temperature;BMP_pressure;BME280_temperature;BME280_humidity;BME280_pressure;Samples;Min_cycle;Max_cycle;Signal;HPM_P1;HPM_P2
2021/08/03 00:02:15;;;;;;;2.45;1.70;;;;;;;;;;4990708;28;20295;-55
2021/08/03 00:04:41;;;;;;;7.18;2.85;;;;;;;;;;4989965;28;20606;-54
2021/08/03 00:07:08;;;;;;;4.10;2.28;;;;;;;;;;4988663;28;20225;-54
2021/08/03 00:09:34;;;;;;;5.97;2.22;;;;;;;;;;4993324;28;20560;-55
2021/08/03 00:12:00;;;;;;;5.70;2.15;;;;;;;;;;4988604;28;20200;-55
2021/08/03 00:14:25;;;;;;;4.05;1.77;;;;;;;;;;4989379;28;20191;-54
2021/08/03 00:16:50;;;;;;;6.57;1.85;;;;;;;;;;4990007;28;20179;-54
2021/08/03 00:19:16;;;;;;;4.93;1.90;;;;;;;;;;4981679;28;20276;-55
2021/08/03 00:21:41;;;;;;;6.95;2.25;;;;;;;;;;4986842;28;20300;-55
2021/08/03 00:24:06;;;;;;;8.68;2.53;;;;;;;;;;4991001;28;20211;-55
2021/08/03 00:26:31;;;;;;;4.47;1.80;;;;;;;;;;4993485;28;20215;-54
2021/08/03 00:28:57;;;;;;;6.72;2.00;;;;;;;;;;4997568;28;20175;-55
2021/08/03 00:31:23;;;;;;;5.43;1.90;;;;;;;;;;4992873;28;20718;-55
2021/08/03 00:33:49;;;;;;;5.70;2.33;;;;;;;;;;4988980;28;20188;-54
2021/08/03 00:36:15;;;;;;;4.70;2.05;;;;;;;;;;4984385;28;20722;-55
2021/08/03 00:38:40;;;;;;;4.30;2.17;;;;;;;;;;4987464;28;20196;-55
2021/08/03 00:41:08;;;;;;;5.95;1.92;;;;;;;;;;4987661;28;20231;-54
2021/08/03 00:43:33;;;;;;;4.90;2.13;;;;;;;;;;4988913;28;20198;-54
2021/08/03 00:45:58;;;;;;;5.60;1.95;;;;;;;;;;4986765;28;20208;-55
2021/08/03 00:48:24;;;;;;;4.70;2.10;;;;;;;;;;4987948;28;20214;-54
2021/08/03 00:50:49;;;;;;;5.93;2.45;;;;;;;;;;4989204;28;20180;-55
2021/08/03 00:53:15;;;;;;;7.68;1.92;;;;;;;;;;4987392;28;20853;-54
2021/08/03 00:55:41;;;;;;;8.13;2.17;;;;;;;;;;4987205;28;20192;-54
2021/08/03 00:58:06;;;;;;;3.13;1.80;;;;;;;;;;4988875;28;20267;-54
2021/08/03 01:00:31;;;;;;;10.85;2.75;;;;;;;;;;4988527;28;20697;-55
2021/08/03 01:02:57;;;;;;;5.85;1.90;;;;;;;;;;4989189;28;20223;-55
2021/08/03 01:05:24;;;;;;;8.48;2.45;;;;;;;;;;4988803;28;20684;-55
2021/08/03 01:08:07;;;;;;;6.00;1.95;;;;;;;;;;4986238;28;20663;-55
2021/08/03 01:10:38;;;;;;;7.25;2.00;;;;;;;;;;4987604;28;20188;-54
2021/08/03 01:13:26;;;;;;;5.97;2.42;;;;;;;;;;4989774;28;20222;-54
2021/08/03 01:15:51;;;;;;;4.97;1.77;;;;;;;;;;4986628;28;20180;-54
2021/08/03 01:18:29;;;;;;;8.32;2.65;;;;;;;;;;4987076;28;20188;-55
2021/08/03 01:21:16;;;;;;;8.35;2.17;;;;;;;;;;4991997;28;20443;-55
2021/08/03 01:24:01;;;;;;;4.72;2.38;;;;;;;;;;4988400;28;20699;-54
2021/08/03 01:26:34;;;;;;;7.65;2.65;;;;;;;;;;4990362;28;20258;-54
2021/08/03 01:29:01;;;;;;;6.85;2.42;;;;;;;;;;4975019;28;20668;-55
2021/08/03 01:31:27;;;;;;;3.33;2.05;;;;;;;;;;4986359;28;20578;-54
2021/08/03 01:33:58;;;;;;;9.25;2.55;;;;;;;;;;4987370;28;20875;-54
2021/08/03 01:36:24;;;;;;;7.53;2.28;;;;;;;;;;4987911;28;20192;-54
2021/08/03 01:38:51;;;;;;;6.30;2.10;;;;;;;;;;4989119;28;20330;-54
2021/08/03 01:41:17;;;;;;;9.37;2.60;;;;;;;;;;4988204;28;20681;-55
2021/08/03 01:43:43;;;;;;;6.78;2.10;;;;;;;;;;4988655;28;20192;-54
2021/08/03 01:46:09;;;;;;;4.03;1.97;;;;;;;;;;4988739;28;20266;-53
2021/08/03 01:48:34;;;;;;;3.87;2.40;;;;;;;;;;4992861;28;20201;-54
2021/08/03 01:50:59;;;;;;;6.95;2.03;;;;;;;;;;4994965;28;20655;-54
2021/08/03 01:53:25;;;;;;;6.70;2.03;;;;;;;;;;4992262;28;20874;-55
2021/08/03 01:55:53;;;;;;;5.78;2.28;;;;;;;;;;4990971;28;20312;-54
2021/08/03 01:58:19;;;;;;;3.22;2.00;;;;;;;;;;4992742;28;20195;-54
2021/08/03 02:00:45;;;;;;;4.95;2.20;;;;;;;;;;4988329;28;20204;-52
2021/08/03 02:03:11;;;;;;;5.65;1.90;;;;;;;;;;5005442;28;20213;-55
2021/08/03 02:05:37;;;;;;;6.28;2.00;;;;;;;;;;4992246;28;20983;-54
2021/08/03 02:08:02;;;;;;;4.13;1.95;;;;;;;;;;4992841;28;20190;-54
2021/08/03 02:10:28;;;;;;;5.78;1.98;;;;;;;;;;4990631;28;20263;-54
2021/08/03 02:12:53;;;;;;;6.50;2.30;;;;;;;;;;4994221;28;20832;-54
2021/08/03 02:15:19;;;;;;;5.07;1.97;;;;;;;;;;4995697;28;20188;-54
2021/08/03 02:17:44;;;;;;;5.57;2.53;;;;;;;;;;4990767;28;20218;-54
2021/08/03 02:20:09;;;;;;;6.23;2.47;;;;;;;;;;4990678;28;20714;-54
2021/08/03 02:22:35;;;;;;;5.30;2.20;;;;;;;;;;4989504;28;20196;-54
2021/08/03 02:25:00;;;;;;;6.17;2.53;;;;;;;;;;4991515;28;20797;-55
2021/08/03 02:27:25;;;;;;;5.93;2.23;;;;;;;;;;4993139;28;20180;-54
2021/08/03 02:29:51;;;;;;;6.17;2.20;;;;;;;;;;5009005;28;20175;-54
2021/08/03 02:32:17;;;;;;;6.83;2.40;;;;;;;;;;4991137;28;20684;-54
2021/08/03 02:34:54;;;;;;;8.53;2.03;;;;;;;;;;4991035;28;20242;-54
2021/08/03 02:37:23;;;;;;;6.63;2.20;;;;;;;;;;4979551;28;20203;-54
2021/08/03 02:39:49;;;;;;;6.22;2.58;;;;;;;;;;4974161;28;20208;-55
2021/08/03 02:42:15;;;;;;;12.63;2.80;;;;;;;;;;4994716;28;20358;-54
2021/08/03 02:44:41;;;;;;;3.70;2.20;;;;;;;;;;4996152;28;20247;-53
2021/08/03 02:47:18;;;;;;;6.37;2.27;;;;;;;;;;4995632;28;20200;-54
2021/08/03 02:49:47;;;;;;;5.60;1.80;;;;;;;;;;4973515;28;20184;-54
2021/08/03 02:52:13;;;;;;;4.33;2.00;;;;;;;;;;4990686;28;20200;-55
2021/08/03 02:54:39;;;;;;;4.10;2.40;;;;;;;;;;4973636;28;20191;-55
2021/08/03 02:57:07;;;;;;;6.43;2.20;;;;;;;;;;4996047;28;20175;-53
2021/08/03 02:59:34;;;;;;;5.30;2.37;;;;;;;;;;4992092;28;20196;-54
2021/08/03 03:02:00;;;;;;;5.53;2.27;;;;;;;;;;4988460;28;20266;-55
2021/08/03 03:04:29;;;;;;;5.47;1.80;;;;;;;;;;5005226;28;20184;-54
2021/08/03 03:06:57;;;;;;;2.40;1.85;;;;;;;;;;4990772;28;20922;-54
2021/08/03 03:09:23;;;;;;;4.85;2.15;;;;;;;;;;4990170;28;20191;-55
2021/08/03 03:11:53;;;;;;;5.75;2.38;;;;;;;;;;4989940;28;20231;-54
2021/08/03 03:14:20;;;;;;;7.60;2.22;;;;;;;;;;4991824;28;20184;-54
2021/08/03 03:16:46;;;;;;;3.08;2.05;;;;;;;;;;4973823;28;20185;-54
2021/08/03 03:19:15;;;;;;;6.57;2.38;;;;;;;;;;4977103;28;20891;-54
2021/08/03 03:21:41;;;;;;;6.75;2.30;;;;;;;;;;5001197;28;20211;-54
2021/08/03 03:24:07;;;;;;;4.40;2.95;;;;;;;;;;4990139;28;20184;-54
2021/08/03 03:26:33;;;;;;;3.88;2.20;;;;;;;;;;4989207;28;20578;-54
2021/08/03 03:28:59;;;;;;;2.85;2.17;;;;;;;;;;4990117;28;20212;-54
2021/08/03 03:31:28;;;;;;;5.13;2.67;;;;;;;;;;4990239;28;20646;-54
2021/08/03 03:33:55;;;;;;;5.28;2.40;;;;;;;;;;4997687;28;20793;-55
2021/08/03 03:36:23;;;;;;;3.47;2.00;;;;;;;;;;4997685;28;20233;-55
2021/08/03 03:38:48;;;;;;;5.88;2.47;;;;;;;;;;4973824;28;20200;-53
2021/08/03 03:41:14;;;;;;;5.23;1.93;;;;;;;;;;4989821;28;20211;-55
2021/08/03 03:43:39;;;;;;;5.63;2.13;;;;;;;;;;4990535;28;20172;-54
2021/08/03 03:46:07;;;;;;;4.10;2.20;;;;;;;;;;4992427;28;20200;-54
2021/08/03 03:48:33;;;;;;;5.67;2.60;;;;;;;;;;4980009;28;20278;-55
2021/08/03 03:51:00;;;;;;;9.50;2.90;;;;;;;;;;4990538;28;20320;-55
2021/08/03 03:53:26;;;;;;;6.17;2.70;;;;;;;;;;4987953;28;20187;-53
2021/08/03 03:55:53;;;;;;;6.60;2.60;;;;;;;;;;4989270;28;20195;-54
2021/08/03 03:58:19;;;;;;;9.03;2.67;;;;;;;;;;4989991;28;20192;-54
2021/08/03 04:00:45;;;;;;;8.93;2.67;;;;;;;;;;5000451;28;20186;-53
2021/08/03 04:03:10;;;;;;;6.93;2.90;;;;;;;;;;4991505;28;20208;-56
2021/08/03 04:05:36;;;;;;;3.50;2.60;;;;;;;;;;4993568;28;20298;-55
2021/08/03 04:08:02;;;;;;;5.93;2.50;;;;;;;;;;4989477;28;20696;-55
2021/08/03 04:10:34;;;;;;;5.93;2.87;;;;;;;;;;4993442;28;20188;-55
2021/08/03 04:12:59;;;;;;;5.07;2.60;;;;;;;;;;4992645;28;20208;-54
2021/08/03 04:15:25;;;;;;;6.53;2.77;;;;;;;;;;4993721;28;20246;-54
2021/08/03 04:17:50;;;;;;;5.37;2.90;;;;;;;;;;4985312;28;20241;-54
2021/08/03 04:20:15;;;;;;;3.63;2.50;;;;;;;;;;4988339;28;20192;-54
2021/08/03 04:22:40;;;;;;;5.50;2.63;;;;;;;;;;4992928;28;20226;-54
2021/08/03 04:25:05;;;;;;;3.57;2.67;;;;;;;;;;4988291;28;20176;-54
2021/08/03 04:27:31;;;;;;;7.00;3.03;;;;;;;;;;4988833;28;20718;-54
2021/08/03 04:29:56;;;;;;;7.80;3.70;;;;;;;;;;4989718;28;20176;-54
2021/08/03 04:32:22;;;;;;;5.13;2.67;;;;;;;;;;4988776;28;20212;-54
2021/08/03 04:34:47;;;;;;;4.83;2.70;;;;;;;;;;4990048;28;20263;-55
2021/08/03 04:37:12;;;;;;;5.17;2.63;;;;;;;;;;4997293;28;20183;-54
2021/08/03 04:39:37;;;;;;;10.73;3.40;;;;;;;;;;4987719;28;20184;-54
2021/08/03 04:42:03;;;;;;;5.10;2.67;;;;;;;;;;4987882;28;20212;-54
2021/08/03 04:44:28;;;;;;;5.43;2.87;;;;;;;;;;4987145;28;20195;-55
2021/08/03 04:46:53;;;;;;;3.70;2.57;;;;;;;;;;4991928;28;20570;-54
2021/08/03 04:49:18;;;;;;;6.70;2.93;;;;;;;;;;4970388;28;20227;-54
2021/08/03 04:51:43;;;;;;;8.57;2.77;;;;;;;;;;4986910;28;20347;-55
2021/08/03 04:54:09;;;;;;;4.53;2.70;;;;;;;;;;4986050;28;20180;-54
2021/08/03 04:56:34;;;;;;;5.00;2.42;;;;;;;;;;4972259;28;20250;-55
2021/08/03 04:58:59;;;;;;;4.03;2.60;;;;;;;;;;4989338;28;20254;-55
2021/08/03 05:01:25;;;;;;;5.13;2.70;;;;;;;;;;4985207;28;20243;-55
2021/08/03 05:03:50;;;;;;;3.67;2.40;;;;;;;;;;4990006;28;20180;-55
2021/08/03 05:06:15;;;;;;;7.53;2.80;;;;;;;;;;4990711;28;20200;-53
2021/08/03 05:08:40;;;;;;;10.13;2.60;;;;;;;;;;4988327;28;20739;-55
2021/08/03 05:11:05;;;;;;;5.43;2.60;;;;;;;;;;4987488;28;20186;-54
2021/08/03 05:13:30;;;;;;;5.80;2.63;;;;;;;;;;4989216;28;20183;-54
2021/08/03 05:15:56;;;;;;;10.60;2.90;;;;;;;;;;4988281;28;20611;-55
2021/08/03 05:18:21;;;;;;;4.27;2.37;;;;;;;;;;4988640;28;20274;-55
2021/08/03 05:20:48;;;;;;;4.60;3.00;;;;;;;;;;4989421;28;20204;-54
2021/08/03 05:23:13;;;;;;;7.57;3.17;;;;;;;;;;4992151;28;20347;-54
2021/08/03 05:25:39;;;;;;;6.00;2.83;;;;;;;;;;4991064;28;20196;-54
2021/08/03 05:28:04;;;;;;;4.23;2.53;;;;;;;;;;4991957;28;20176;-54
2021/08/03 05:30:29;;;;;;;3.30;2.50;;;;;;;;;;4991295;28;20271;-54
2021/08/03 05:32:54;;;;;;;4.67;2.40;;;;;;;;;;4992445;28;20254;-55
2021/08/03 05:35:19;;;;;;;4.07;2.67;;;;;;;;;;4991955;28;20188;-54
2021/08/03 05:37:45;;;;;;;4.97;2.63;;;;;;;;;;4991981;28;20210;-53
2021/08/03 05:40:12;;;;;;;4.83;2.70;;;;;;;;;;4989711;28;20207;-54
2021/08/03 05:42:37;;;;;;;4.00;2.40;;;;;;;;;;4990971;28;20947;-54
2021/08/03 05:45:02;;;;;;;7.27;2.77;;;;;;;;;;4989946;28;20279;-54
2021/08/03 05:47:28;;;;;;;4.57;2.43;;;;;;;;;;4991388;28;20561;-54
2021/08/03 05:49:53;;;;;;;5.20;2.60;;;;;;;;;;4986782;28;20188;-54
2021/08/03 05:52:19;;;;;;;4.17;2.23;;;;;;;;;;4984436;28;20227;-55
2021/08/03 05:54:44;;;;;;;4.03;2.60;;;;;;;;;;4983849;28;20765;-54
2021/08/03 05:57:09;;;;;;;5.10;2.60;;;;;;;;;;4985488;28;20195;-55
2021/08/03 05:59:34;;;;;;;3.07;2.23;;;;;;;;;;4986399;28;20230;-54
2021/08/03 06:01:59;;;;;;;3.42;2.38;;;;;;;;;;4985740;28;20646;-55
2021/08/03 06:04:25;;;;;;;6.43;2.40;;;;;;;;;;4986160;28;20266;-54
2021/08/03 06:06:53;;;;;;;3.87;2.30;;;;;;;;;;4991913;28;20735;-53
2021/08/03 06:09:19;;;;;;;5.22;2.38;;;;;;;;;;4990761;28;20571;-54
2021/08/03 06:11:46;;;;;;;5.68;2.28;;;;;;;;;;4990740;28;20210;-54
2021/08/03 06:14:11;;;;;;;4.77;2.33;;;;;;;;;;4992136;28;20180;-54
2021/08/03 06:16:37;;;;;;;3.05;2.30;;;;;;;;;;4995647;28;20246;-54
2021/08/03 06:19:03;;;;;;;4.28;2.22;;;;;;;;;;4996155;28;20191;-52
2021/08/03 06:21:28;;;;;;;7.82;2.42;;;;;;;;;;4991300;28;20216;-54
2021/08/03 06:23:54;;;;;;;3.30;2.13;;;;;;;;;;4992170;28;20186;-53
2021/08/03 06:26:20;;;;;;;2.55;2.10;;;;;;;;;;4991428;28;20287;-55
2021/08/03 06:28:48;;;;;;;5.15;2.58;;;;;;;;;;4990303;28;20180;-54
2021/08/03 06:31:13;;;;;;;5.80;1.85;;;;;;;;;;4969331;28;20307;-52
2021/08/03 06:33:38;;;;;;;4.05;2.03;;;;;;;;;;4980725;28;20196;-54
2021/08/03 06:36:04;;;;;;;2.20;2.00;;;;;;;;;;4994808;28;20580;-53
2021/08/03 06:38:29;;;;;;;4.95;2.50;;;;;;;;;;4994842;28;20278;-54
2021/08/03 06:41:00;;;;;;;4.95;2.30;;;;;;;;;;4993938;28;20211;-53
2021/08/03 06:43:27;;;;;;;13.93;2.20;;;;;;;;;;4993395;28;20192;-53
2021/08/03 06:45:58;;;;;;;5.35;2.03;;;;;;;;;;4993880;28;20220;-55
2021/08/03 06:48:36;;;;;;;3.30;2.30;;;;;;;;;;4963891;28;20192;-52
2021/08/03 06:51:07;;;;;;;4.80;1.90;;;;;;;;;;4977763;28;20186;-55
2021/08/03 06:53:35;;;;;;;4.07;1.90;;;;;;;;;;4982727;28;20311;-53
2021/08/03 06:56:01;;;;;;;4.70;1.88;;;;;;;;;;4979667;28;20184;-52
2021/08/03 06:58:38;;;;;;;3.88;1.50;;;;;;;;;;4983757;28;20204;-55
2021/08/03 07:01:05;;;;;;;3.42;1.55;;;;;;;;;;4985175;28;20211;-54
2021/08/03 07:03:32;;;;;;;3.13;1.42;;;;;;;;;;4987063;28;20275;-54
2021/08/03 07:05:58;;;;;;;4.93;1.90;;;;;;;;;;4974648;28;20803;-55
2021/08/03 07:08:23;;;;;;;3.60;1.70;;;;;;;;;;4990372;28;20191;-53
2021/08/03 07:10:52;;;;;;;3.13;1.60;;;;;;;;;;4973686;28;20188;-53
2021/08/03 07:13:18;;;;;;;2.38;1.67;;;;;;;;;;4992762;28;20588;-54
2021/08/03 07:15:44;;;;;;;2.20;2.00;;;;;;;;;;4990993;28;20187;-54
2021/08/03 07:18:10;;;;;;;7.35;2.15;;;;;;;;;;4972291;28;20191;-54
2021/08/03 07:20:36;;;;;;;2.83;2.10;;;;;;;;;;4973959;28;20222;-54
2021/08/03 07:23:01;;;;;;;4.90;2.47;;;;;;;;;;4989622;28;20342;-54
2021/08/03 07:25:27;;;;;;;3.75;2.33;;;;;;;;;;4987450;28;20247;-54
2021/08/03 07:27:52;;;;;;;4.18;2.75;;;;;;;;;;4989567;28;20771;-55
2021/08/03 07:30:17;;;;;;;4.60;2.50;;;;;;;;;;4978136;28;20198;-55
2021/08/03 07:32:42;;;;;;;4.15;2.95;;;;;;;;;;4992989;28;20430;-55
2021/08/03 07:35:08;;;;;;;5.47;2.75;;;;;;;;;;4990984;28;20187;-54
2021/08/03 07:37:35;;;;;;;4.13;2.30;;;;;;;;;;4990524;28;20660;-55
2021/08/03 07:40:00;;;;;;;5.20;2.13;;;;;;;;;;4990672;28;20167;-55
2021/08/03 07:42:26;;;;;;;4.43;2.40;;;;;;;;;;4986361;28;20219;-55
2021/08/03 07:44:51;;;;;;;4.57;2.13;;;;;;;;;;4988327;28;20312;-55
2021/08/03 07:47:16;;;;;;;2.53;1.90;;;;;;;;;;4991010;28;20474;-54
2021/08/03 07:49:42;;;;;;;3.83;2.00;;;;;;;;;;4996043;28;20179;-54
2021/08/03 07:52:07;;;;;;;3.33;1.90;;;;;;;;;;4974239;28;20243;-55
2021/08/03 07:54:32;;;;;;;4.45;2.50;;;;;;;;;;4988814;28;20211;-54
2021/08/03 07:56:58;;;;;;;4.47;2.40;;;;;;;;;;4988389;28;20579;-55
2021/08/03 07:59:23;;;;;;;5.05;2.47;;;;;;;;;;4994963;28;20215;-53
2021/08/03 08:01:48;;;;;;;4.65;2.30;;;;;;;;;;4989152;28;20212;-55
2021/08/03 08:04:14;;;;;;;3.95;2.50;;;;;;;;;;4989677;28;20215;-55
2021/08/03 08:06:39;;;;;;;3.13;2.33;;;;;;;;;;4989655;28;20203;-65
2021/08/03 08:09:04;;;;;;;3.63;2.00;;;;;;;;;;4987447;28;20226;-56
2021/08/03 08:11:29;;;;;;;6.17;2.30;;;;;;;;;;4987074;28;20583;-57
2021/08/03 08:13:54;;;;;;;4.00;2.13;;;;;;;;;;4989395;28;20191;-56
2021/08/03 08:16:19;;;;;;;2.60;2.10;;;;;;;;;;4988451;28;20184;-56
2021/08/03 08:18:45;;;;;;;2.50;2.30;;;;;;;;;;4991840;28;20457;-56
2021/08/03 08:21:10;;;;;;;4.60;2.43;;;;;;;;;;4990139;28;20202;-56
2021/08/03 08:23:36;;;;;;;3.00;2.53;;;;;;;;;;4988729;28;20415;-56
2021/08/03 08:26:02;;;;;;;4.00;2.92;;;;;;;;;;4988977;28;20343;-56
2021/08/03 08:28:28;;;;;;;6.70;3.13;;;;;;;;;;4989887;28;20176;-55
2021/08/03 08:30:54;;;;;;;2.90;2.60;;;;;;;;;;4989954;28;20215;-56
2021/08/03 08:33:19;;;;;;;4.38;2.95;;;;;;;;;;4981522;28;20223;-56
2021/08/03 08:35:45;;;;;;;4.13;2.80;;;;;;;;;;4987829;28;20183;-55
2021/08/03 08:38:10;;;;;;;5.95;3.28;;;;;;;;;;4987605;28;20498;-55
2021/08/03 08:40:36;;;;;;;6.13;3.25;;;;;;;;;;4988871;28;20183;-56
2021/08/03 08:43:01;;;;;;;4.78;2.92;;;;;;;;;;4969024;28;20698;-56
2021/08/03 08:45:26;;;;;;;3.25;2.88;;;;;;;;;;4986735;28;20218;-56
2021/08/03 08:47:52;;;;;;;3.92;2.35;;;;;;;;;;4988901;28;20187;-56
2021/08/03 08:50:22;;;;;;;4.78;2.40;;;;;;;;;;4988850;28;20672;-56
2021/08/03 08:52:53;;;;;;;4.78;2.83;;;;;;;;;;4988735;28;20199;-56
2021/08/03 08:55:18;;;;;;;6.35;2.60;;;;;;;;;;4991339;28;20683;-56
2021/08/03 08:57:47;;;;;;;6.18;3.00;;;;;;;;;;4986667;28;20214;-56
2021/08/03 09:00:13;;;;;;;4.97;2.92;;;;;;;;;;4987807;28;20183;-55
2021/08/03 09:02:41;;;;;;;5.20;2.63;;;;;;;;;;4989100;28;20200;-55
2021/08/03 09:05:06;;;;;;;4.03;2.80;;;;;;;;;;5001870;28;20180;-55
2021/08/03 09:07:32;;;;;;;3.80;3.00;;;;;;;;;;4996161;28;20180;-55
2021/08/03 09:09:59;;;;;;;3.65;3.05;;;;;;;;;;4985231;28;20210;-57
2021/08/03 09:12:34;;;;;;;4.85;3.10;;;;;;;;;;4985849;28;20200;-56
2021/08/03 09:14:59;;;;;;;6.78;3.38;;;;;;;;;;4971528;28;20794;-56
2021/08/03 09:17:26;;;;;;;3.65;3.00;;;;;;;;;;4988425;28;20215;-55
2021/08/03 09:19:51;;;;;;;4.78;3.38;;;;;;;;;;4988075;28;20203;-56
2021/08/03 09:22:30;;;;;;;4.30;3.30;;;;;;;;;;4988522;28;20614;-56
2021/08/03 09:25:14;;;;;;;4.18;2.92;;;;;;;;;;4989290;28;20929;-56
2021/08/03 09:27:43;;;;;;;5.10;3.25;;;;;;;;;;4987641;28;20561;-56
2021/08/03 09:30:28;;;;;;;5.28;3.53;;;;;;;;;;4991761;28;20187;-56
2021/08/03 09:32:54;;;;;;;5.85;3.30;;;;;;;;;;4979106;28;20215;-56
2021/08/03 09:35:21;;;;;;;6.97;3.03;;;;;;;;;;4987352;28;20210;-56
2021/08/03 09:37:46;;;;;;;5.97;2.85;;;;;;;;;;4970256;28;20184;-56
2021/08/03 09:40:22;;;;;;;4.03;2.60;;;;;;;;;;4988232;28;20592;-55
2021/08/03 09:43:01;;;;;;;9.75;2.95;;;;;;;;;;4987152;28;20208;-55
2021/08/03 09:45:27;;;;;;;3.55;2.70;;;;;;;;;;4989278;28;20215;-56
2021/08/03 09:47:54;;;;;;;3.83;2.40;;;;;;;;;;4987972;28;20176;-55
2021/08/03 09:50:20;;;;;;;5.60;3.08;;;;;;;;;;4987646;28;20191;-55
2021/08/03 09:52:47;;;;;;;3.70;2.83;;;;;;;;;;4971027;28;20300;-56
2021/08/03 09:55:13;;;;;;;3.25;2.42;;;;;;;;;;4985133;28;20180;-55
2021/08/03 09:57:39;;;;;;;3.00;2.60;;;;;;;;;;4985442;28;20180;-57
2021/08/03 10:00:23;;;;;;;5.38;2.78;;;;;;;;;;4986144;28;20191;-56
2021/08/03 10:02:49;;;;;;;4.80;2.90;;;;;;;;;;4988390;28;20255;-56
2021/08/03 10:05:14;;;;;;;4.78;2.90;;;;;;;;;;4986559;28;20576;-56
2021/08/03 10:07:39;;;;;;;2.90;2.60;;;;;;;;;;4986557;28;20560;-56
2021/08/03 10:10:04;;;;;;;7.80;2.50;;;;;;;;;;4989941;28;20529;-56
2021/08/03 10:12:30;;;;;;;4.15;2.30;;;;;;;;;;4991048;28;20529;-56
2021/08/03 10:14:55;;;;;;;2.63;2.43;;;;;;;;;;4987002;28;20190;-56
2021/08/03 10:17:20;;;;;;;3.97;2.90;;;;;;;;;;4991297;28;20427;-56
2021/08/03 10:19:45;;;;;;;3.72;2.60;;;;;;;;;;4972982;28;20204;-56
2021/08/03 10:22:16;;;;;;;4.43;2.50;;;;;;;;;;4994438;28;20742;-56
2021/08/03 10:24:49;;;;;;;3.20;2.63;;;;;;;;;;4974252;28;20806;-56
2021/08/03 10:27:15;;;;;;;3.13;2.40;;;;;;;;;;4989469;28;20227;-56
2021/08/03 10:29:46;;;;;;;2.80;2.55;;;;;;;;;;4989932;28;20192;-56
2021/08/03 10:32:31;;;;;;;3.42;2.55;;;;;;;;;;4991832;28;20196;-55
2021/08/03 10:34:56;;;;;;;2.78;2.55;;;;;;;;;;4991186;28;20242;-55
2021/08/03 10:37:22;;;;;;;2.58;2.33;;;;;;;;;;4991524;28;20700;-56
2021/08/03 10:39:52;;;;;;;4.15;2.70;;;;;;;;;;4989872;28;20230;-56
2021/08/03 10:42:17;;;;;;;6.32;2.53;;;;;;;;;;4988908;28;20218;-56
2021/08/03 10:44:50;;;;;;;3.72;2.60;;;;;;;;;;4990320;28;20180;-55
2021/08/03 10:47:31;;;;;;;4.38;2.80;;;;;;;;;;4990238;28;20204;-55
2021/08/03 10:49:59;;;;;;;3.63;2.50;;;;;;;;;;4991214;28;20184;-55
2021/08/03 10:52:43;;;;;;;3.83;2.80;;;;;;;;;;4986866;28;20232;-55
2021/08/03 10:55:08;;;;;;;4.97;2.63;;;;;;;;;;4988829;28;20194;-56
2021/08/03 10:57:33;;;;;;;4.45;2.35;;;;;;;;;;4988949;28;20184;-55
2021/08/03 11:00:00;;;;;;;2.72;2.10;;;;;;;;;;4989173;28;20660;-56
2021/08/03 11:02:34;;;;;;;5.25;2.30;;;;;;;;;;4990715;28;20427;-54
2021/08/03 11:05:00;;;;;;;6.57;2.42;;;;;;;;;;4989718;28;20203;-56
2021/08/03 11:07:25;;;;;;;5.47;2.58;;;;;;;;;;4990395;28;20214;-56
2021/08/03 11:10:13;;;;;;;5.85;2.42;;;;;;;;;;4990361;28;20173;-56
2021/08/03 11:12:40;;;;;;;4.32;2.38;;;;;;;;;;4980744;28;20222;-55
2021/08/03 11:15:23;;;;;;;3.30;2.90;;;;;;;;;;4989120;28;20215;-55
2021/08/03 11:18:04;;;;;;;4.32;2.50;;;;;;;;;;4992005;28;20255;-56
2021/08/03 11:20:35;;;;;;;3.85;2.30;;;;;;;;;;4988582;28;20262;-55
2021/08/03 11:23:20;;;;;;;4.10;2.30;;;;;;;;;;4990422;28;20192;-55
2021/08/03 11:25:47;;;;;;;5.47;2.95;;;;;;;;;;4972036;28;20219;-55
2021/08/03 11:28:22;;;;;;;9.65;2.78;;;;;;;;;;4988822;28;20176;-55
2021/08/03 11:30:48;;;;;;;5.28;2.78;;;;;;;;;;4989029;28;20717;-55
2021/08/03 11:33:14;;;;;;;2.47;2.15;;;;;;;;;;4989168;28;20282;-55
2021/08/03 11:35:40;;;;;;;5.85;2.50;;;;;;;;;;4987124;28;20736;-56
2021/08/03 11:38:16;;;;;;;6.43;2.28;;;;;;;;;;4988191;28;20929;-55
2021/08/03 11:40:42;;;;;;;5.43;2.15;;;;;;;;;;4989499;28;20265;-56
2021/08/03 11:43:07;;;;;;;4.07;2.45;;;;;;;;;;4988986;28;20212;-53
2021/08/03 11:45:36;;;;;;;6.55;2.40;;;;;;;;;;4994196;28;20226;-53
2021/08/03 11:48:03;;;;;;;5.18;2.50;;;;;;;;;;4990785;28;20192;-55
2021/08/03 11:50:28;;;;;;;3.95;2.60;;;;;;;;;;4987165;28;20200;-54
2021/08/03 11:52:54;;;;;;;3.90;2.20;;;;;;;;;;4990456;28;20258;-55
2021/08/03 11:55:19;;;;;;;4.65;2.28;;;;;;;;;;4973222;28;20435;-55
2021/08/03 11:57:48;;;;;;;3.70;2.55;;;;;;;;;;4990070;28;20195;-55
2021/08/03 12:00:15;;;;;;;3.03;2.00;;;;;;;;;;4989589;28;20215;-55
2021/08/03 12:02:40;;;;;;;3.67;2.42;;;;;;;;;;4989302;28;20204;-55
2021/08/03 12:05:26;;;;;;;3.50;2.28;;;;;;;;;;4991675;28;20272;-54
2021/08/03 12:08:11;;;;;;;4.15;2.10;;;;;;;;;;4985881;28;20664;-55
2021/08/03 12:10:38;;;;;;;4.25;2.33;;;;;;;;;;4988744;28;20192;-55
2021/08/03 12:13:05;;;;;;;3.15;2.70;;;;;;;;;;4993360;28;20295;-55
2021/08/03 12:15:42;;;;;;;5.38;2.38;;;;;;;;;;4988299;28;20191;-55
2021/08/03 12:18:08;;;;;;;4.50;2.05;;;;;;;;;;4986827;28;20590;-55
2021/08/03 12:20:36;;;;;;;3.20;2.30;;;;;;;;;;4986812;28;20675;-56
2021/08/03 12:23:08;;;;;;;3.63;1.95;;;;;;;;;;4987326;28;20258;-55
2021/08/03 12:25:45;;;;;;;3.17;2.03;;;;;;;;;;4987743;28;20208;-55
2021/08/03 12:28:10;;;;;;;3.55;2.20;;;;;;;;;;4985286;28;20176;-55
2021/08/03 12:30:37;;;;;;;4.15;2.72;;;;;;;;;;4986196;28;20653;-55
2021/08/03 12:33:02;;;;;;;4.05;2.30;;;;;;;;;;4987903;28;20228;-56
2021/08/03 12:35:27;;;;;;;5.45;2.72;;;;;;;;;;4970675;28;20215;-55
2021/08/03 12:38:09;;;;;;;4.45;2.95;;;;;;;;;;4989330;28;20710;-54
2021/08/03 12:40:34;;;;;;;3.17;2.45;;;;;;;;;;4995167;28;20176;-56
2021/08/03 12:43:00;;;;;;;2.83;2.20;;;;;;;;;;4995649;28;20194;-55
2021/08/03 12:45:26;;;;;;;10.40;3.15;;;;;;;;;;4983254;28;20188;-55
2021/08/03 12:47:58;;;;;;;4.05;2.40;;;;;;;;;;4986190;28;20184;-53
2021/08/03 12:50:24;;;;;;;8.15;3.10;;;;;;;;;;4990413;28;20187;-55
2021/08/03 12:52:50;;;;;;;6.75;2.30;;;;;;;;;;4993737;28;20196;-55
2021/08/03 12:55:25;;;;;;;23.65;2.80;;;;;;;;;;4971608;28;20182;-54
2021/08/03 12:57:52;;;;;;;4.75;2.55;;;;;;;;;;4996150;28;20588;-55
2021/08/03 13:00:37;;;;;;;3.25;2.30;;;;;;;;;;4984900;28;20180;-53
2021/08/03 13:03:03;;;;;;;6.88;2.70;;;;;;;;;;4985966;28;20196;-54
2021/08/03 13:05:29;;;;;;;7.57;3.22;;;;;;;;;;4969802;28;20187;-56
2021/08/03 13:07:54;;;;;;;3.70;2.30;;;;;;;;;;4986677;28;20180;-55
2021/08/03 13:10:20;;;;;;;5.30;1.90;;;;;;;;;;4971372;28;20178;-55
2021/08/03 13:12:45;;;;;;;3.90;2.08;;;;;;;;;;4987079;28;20208;-55
2021/08/03 13:15:10;;;;;;;2.72;2.22;;;;;;;;;;4988803;28;20561;-55
2021/08/03 13:17:36;;;;;;;3.10;2.10;;;;;;;;;;4988941;28;20187;-55
2021/08/03 13:20:01;;;;;;;3.50;2.20;;;;;;;;;;4986977;28;20199;-55
2021/08/03 13:22:26;;;;;;;2.92;2.15;;;;;;;;;;4986697;28;20228;-56
2021/08/03 13:24:51;;;;;;;2.85;1.98;;;;;;;;;;4966908;28;20239;-55
2021/08/03 13:27:16;;;;;;;4.38;2.08;;;;;;;;;;4987915;28;20676;-55
2021/08/03 13:29:42;;;;;;;2.83;2.10;;;;;;;;;;4969397;28;20184;-55
2021/08/03 13:32:07;;;;;;;3.35;2.08;;;;;;;;;;4987089;28;20211;-55
2021/08/03 13:34:32;;;;;;;4.00;2.20;;;;;;;;;;4988632;28;20184;-55
2021/08/03 13:36:57;;;;;;;2.30;2.00;;;;;;;;;;4986346;28;20191;-55
2021/08/03 13:39:23;;;;;;;2.65;2.10;;;;;;;;;;4987693;28;20272;-55
2021/08/03 13:41:50;;;;;;;7.82;2.00;;;;;;;;;;4995691;28;20790;-56
2021/08/03 13:44:15;;;;;;;4.05;2.22;;;;;;;;;;4989863;28;20191;-55
2021/08/03 13:46:40;;;;;;;4.35;2.40;;;;;;;;;;4974200;28;20200;-55
2021/08/03 13:49:05;;;;;;;4.50;2.07;;;;;;;;;;4995512;28;20188;-55
2021/08/03 13:51:31;;;;;;;5.27;2.50;;;;;;;;;;4991421;28;20524;-55
2021/08/03 13:53:57;;;;;;;3.00;2.22;;;;;;;;;;4992425;28;20431;-55
2021/08/03 13:56:22;;;;;;;4.55;2.55;;;;;;;;;;4997001;28;20187;-55
2021/08/03 13:58:47;;;;;;;4.80;2.40;;;;;;;;;;5001958;28;20267;-55
2021/08/03 14:01:12;;;;;;;3.08;2.15;;;;;;;;;;4990101;28;20188;-55
2021/08/03 14:03:38;;;;;;;5.25;2.15;;;;;;;;;;4991245;28;20211;-55
2021/08/03 14:06:03;;;;;;;2.88;2.20;;;;;;;;;;4994447;28;20504;-55
2021/08/03 14:08:29;;;;;;;4.75;2.15;;;;;;;;;;4997454;28;20186;-55
2021/08/03 14:10:54;;;;;;;4.72;2.10;;;;;;;;;;4991406;28;20717;-56
2021/08/03 14:13:22;;;;;;;5.13;2.20;;;;;;;;;;4990551;28;20216;-55
2021/08/03 14:15:51;;;;;;;3.05;2.15;;;;;;;;;;4989868;28;20735;-55
2021/08/03 14:18:16;;;;;;;3.90;2.05;;;;;;;;;;4989368;28;20275;-55
2021/08/03 14:20:41;;;;;;;4.70;2.20;;;;;;;;;;4999077;28;20631;-54
2021/08/03 14:23:06;;;;;;;5.50;2.03;;;;;;;;;;4979192;28;20497;-55
2021/08/03 14:25:31;;;;;;;5.63;2.23;;;;;;;;;;4990706;28;20839;-56
2021/08/03 14:27:56;;;;;;;5.47;2.67;;;;;;;;;;4989430;28;20465;-55
2021/08/03 14:30:22;;;;;;;3.08;2.17;;;;;;;;;;4986608;28;20430;-55
2021/08/03 14:32:47;;;;;;;3.22;2.20;;;;;;;;;;4988105;28;20212;-55
2021/08/03 14:35:12;;;;;;;2.10;1.90;;;;;;;;;;4989871;28;20210;-57
2021/08/03 14:37:37;;;;;;;4.07;2.00;;;;;;;;;;4988235;28;20180;-55
2021/08/03 14:40:03;;;;;;;10.48;2.35;;;;;;;;;;4989314;28;20446;-55
2021/08/03 14:42:28;;;;;;;2.85;2.03;;;;;;;;;;4989938;28;20203;-56
2021/08/03 14:44:53;;;;;;;2.13;1.65;;;;;;;;;;4990585;28;20192;-54